sensor_id;sensor_type;location;lat;lon;timestamp;P1;durP1;ratioP1;P2;durP2;ratioP2
2476;SDS011;1249;51.270;6.756;2023-07-28T00:00:05;2.00;;;1.80;;
2476;SDS011;1249;51.270;6.756;2023-07-28T00:02:31;2.27;;;2.07;;
2476;SDS011;1249;51.270;6.756;2023-07-28T00:04:57;1.50;;;1.40;;
2476;SDS011;1249;51.270;6.756;2023-07-28T00:07:22;2.13;;;2.03;;
2476;SDS011;1249;51.270;6.756;2023-07-28T00:09:48;2.00;;;1.90;;
2476;SDS011;1249;51.270;6.756;2023-07-28T00:12:13;2.20;;;1.87;;
2476;SDS011;1249;51.270;6.756;2023-07-28T00:14:39;2.00;;;1.80;;
2476;SDS011;1249;51.270;6.756;2023-07-28T00:17:05;1.90;;;1.80;;
2476;SDS011;1249;51.270;6.756;2023-07-28T00:19:30;1.60;;;1.50;;
2476;SDS011;1249;51.270;6.756;2023-07-28T00:21:56;2.10;;;1.90;;
2476;SDS011;1249;51.270;6.756;2023-07-28T00:24:21;1.90;;;1.80;;
2476;SDS011;1249;51.270;6.756;2023-07-28T00:26:47;1.97;;;1.87;;
2476;SDS011;1249;51.270;6.756;2023-07-28T00:29:13;2.93;;;1.73;;
2476;SDS011;1249;51.270;6.756;2023-07-28T00:31:38;2.03;;;1.70;;
2476;SDS011;1249;51.270;6.756;2023-07-28T00:34:04;3.83;;;1.97;;
2476;SDS011;1249;51.270;6.756;2023-07-28T00:36:30;2.27;;;1.70;;
2476;SDS011;1249;51.270;6.756;2023-07-28T00:38:56;1.93;;;1.40;;
2476;SDS011;1249;51.270;6.756;2023-07-28T00:41:22;3.23;;;2.10;;
2476;SDS011;1249;51.270;6.756;2023-07-28T00:43:47;2.80;;;1.53;;
2476;SDS011;1249;51.270;6.756;2023-07-28T00:46:14;2.80;;;1.63;;
2476;SDS011;1249;51.270;6.756;2023-07-28T00:48:40;1.53;;;1.43;;
2476;SDS011;1249;51.270;6.756;2023-07-28T00:51:09;2.13;;;1.97;;
2476;SDS011;1249;51.270;6.756;2023-07-28T00:53:35;2.20;;;1.97;;
2476;SDS011;1249;51.270;6.756;2023-07-28T00:56:01;1.70;;;1.60;;
2476;SDS011;1249;51.270;6.756;2023-07-28T00:58:29;3.30;;;1.80;;
2476;SDS011;1249;51.270;6.756;2023-07-28T01:00:55;1.73;;;1.63;;
2476;SDS011;1249;51.270;6.756;2023-07-28T01:03:20;3.57;;;1.90;;
2476;SDS011;1249;51.270;6.756;2023-07-28T01:05:50;2.30;;;2.10;;
2476;SDS011;1249;51.270;6.756;2023-07-28T01:08:22;1.43;;;1.33;;
2476;SDS011;1249;51.270;6.756;2023-07-28T01:10:57;2.00;;;1.80;;
2476;SDS011;1249;51.270;6.756;2023-07-28T01:13:23;2.87;;;1.80;;
2476;SDS011;1249;51.270;6.756;2023-07-28T01:15:48;5.33;;;2.00;;
2476;SDS011;1249;51.270;6.756;2023-07-28T01:18:14;1.97;;;1.87;;
2476;SDS011;1249;51.270;6.756;2023-07-28T01:20:40;3.30;;;2.07;;
2476;SDS011;1249;51.270;6.756;2023-07-28T01:23:08;2.00;;;1.80;;
2476;SDS011;1249;51.270;6.756;2023-07-28T01:28:18;1.97;;;1.87;;
2476;SDS011;1249;51.270;6.756;2023-07-28T01:30:45;3.30;;;2.00;;
2476;SDS011;1249;51.270;6.756;2023-07-28T01:33:11;3.50;;;2.17;;
2476;SDS011;1249;51.270;6.756;2023-07-28T01:35:36;2.50;;;2.30;;
2476;SDS011;1249;51.270;6.756;2023-07-28T01:38:05;2.03;;;1.83;;
2476;SDS011;1249;51.270;6.756;2023-07-28T01:40:31;1.97;;;1.87;;
2476;SDS011;1249;51.270;6.756;2023-07-28T01:42:57;3.20;;;2.47;;
2476;SDS011;1249;51.270;6.756;2023-07-28T01:45:22;2.30;;;2.10;;
2476;SDS011;1249;51.270;6.756;2023-07-28T01:47:48;2.50;;;2.00;;
2476;SDS011;1249;51.270;6.756;2023-07-28T01:50:13;2.50;;;2.03;;
2476;SDS011;1249;51.270;6.756;2023-07-28T01:52:39;2.37;;;2.17;;
2476;SDS011;1249;51.270;6.756;2023-07-28T01:55:05;2.23;;;2.03;;
2476;SDS011;1249;51.270;6.756;2023-07-28T01:57:34;2.50;;;2.20;;
2476;SDS011;1249;51.270;6.756;2023-07-28T02:00:00;3.00;;;2.27;;
2476;SDS011;1249;51.270;6.756;2023-07-28T02:02:28;2.57;;;2.30;;
2476;SDS011;1249;51.270;6.756;2023-07-28T02:04:54;2.73;;;2.30;;
2476;SDS011;1249;51.270;6.756;2023-07-28T02:07:19;4.43;;;2.13;;
2476;SDS011;1249;51.270;6.756;2023-07-28T02:09:45;2.10;;;1.97;;
2476;SDS011;1249;51.270;6.756;2023-07-28T02:12:10;3.00;;;1.70;;
2476;SDS011;1249;51.270;6.756;2023-07-28T02:14:36;5.23;;;2.63;;
2476;SDS011;1249;51.270;6.756;2023-07-28T02:17:01;2.50;;;2.30;;
2476;SDS011;1249;51.270;6.756;2023-07-28T02:19:27;2.80;;;2.60;;
2476;SDS011;1249;51.270;6.756;2023-07-28T02:21:52;2.73;;;2.20;;
2476;SDS011;1249;51.270;6.756;2023-07-28T02:24:18;1.93;;;1.83;;
2476;SDS011;1249;51.270;6.756;2023-07-28T02:26:43;2.37;;;1.77;;
2476;SDS011;1249;51.270;6.756;2023-07-28T02:29:09;2.20;;;2.10;;
2476;SDS011;1249;51.270;6.756;2023-07-28T02:31:34;2.13;;;2.03;;
2476;SDS011;1249;51.270;6.756;2023-07-28T02:34:00;2.50;;;2.30;;
2476;SDS011;1249;51.270;6.756;2023-07-28T02:36:25;1.83;;;1.73;;
2476;SDS011;1249;51.270;6.756;2023-07-28T02:38:51;3.30;;;2.30;;
2476;SDS011;1249;51.270;6.756;2023-07-28T02:41:17;2.20;;;2.10;;
2476;SDS011;1249;51.270;6.756;2023-07-28T02:43:42;2.77;;;2.57;;
2476;SDS011;1249;51.270;6.756;2023-07-28T02:46:08;1.80;;;1.70;;
2476;SDS011;1249;51.270;6.756;2023-07-28T02:48:33;2.23;;;2.03;;
2476;SDS011;1249;51.270;6.756;2023-07-28T02:50:59;2.03;;;1.93;;
2476;SDS011;1249;51.270;6.756;2023-07-28T02:53:24;2.77;;;2.17;;
2476;SDS011;1249;51.270;6.756;2023-07-28T02:55:50;2.07;;;1.97;;
2476;SDS011;1249;51.270;6.756;2023-07-28T02:58:15;2.30;;;2.10;;
2476;SDS011;1249;51.270;6.756;2023-07-28T03:00:42;2.70;;;2.17;;
2476;SDS011;1249;51.270;6.756;2023-07-28T03:03:09;2.13;;;2.03;;
2476;SDS011;1249;51.270;6.756;2023-07-28T03:05:38;3.20;;;1.90;;
2476;SDS011;1249;51.270;6.756;2023-07-28T03:08:04;2.00;;;1.90;;
2476;SDS011;1249;51.270;6.756;2023-07-28T03:10:31;3.50;;;2.87;;
2476;SDS011;1249;51.270;6.756;2023-07-28T03:12:57;2.13;;;2.03;;
2476;SDS011;1249;51.270;6.756;2023-07-28T03:15:23;2.13;;;1.93;;
2476;SDS011;1249;51.270;6.756;2023-07-28T03:17:49;2.23;;;2.03;;
2476;SDS011;1249;51.270;6.756;2023-07-28T03:20:15;2.00;;;1.90;;
2476;SDS011;1249;51.270;6.756;2023-07-28T03:22:41;4.73;;;2.10;;
2476;SDS011;1249;51.270;6.756;2023-07-28T03:25:07;2.07;;;1.87;;
2476;SDS011;1249;51.270;6.756;2023-07-28T03:27:33;2.27;;;1.83;;
2476;SDS011;1249;51.270;6.756;2023-07-28T03:29:59;3.60;;;2.10;;
2476;SDS011;1249;51.270;6.756;2023-07-28T03:32:24;2.10;;;2.00;;
2476;SDS011;1249;51.270;6.756;2023-07-28T03:34:50;2.03;;;1.83;;
2476;SDS011;1249;51.270;6.756;2023-07-28T03:37:16;1.93;;;1.83;;
2476;SDS011;1249;51.270;6.756;2023-07-28T03:39:41;2.43;;;2.03;;
2476;SDS011;1249;51.270;6.756;2023-07-28T03:42:07;2.73;;;2.63;;
2476;SDS011;1249;51.270;6.756;2023-07-28T03:44:33;2.20;;;2.00;;
2476;SDS011;1249;51.270;6.756;2023-07-28T03:46:59;2.10;;;2.00;;
2476;SDS011;1249;51.270;6.756;2023-07-28T03:49:24;4.27;;;2.53;;
2476;SDS011;1249;51.270;6.756;2023-07-28T03:51:50;2.83;;;2.30;;
2476;SDS011;1249;51.270;6.756;2023-07-28T03:54:17;2.63;;;2.43;;
2476;SDS011;1249;51.270;6.756;2023-07-28T03:56:42;5.70;;;2.50;;
2476;SDS011;1249;51.270;6.756;2023-07-28T03:59:08;2.23;;;1.87;;
2476;SDS011;1249;51.270;6.756;2023-07-28T04:01:33;2.37;;;2.17;;
2476;SDS011;1249;51.270;6.756;2023-07-28T04:03:59;3.60;;;2.23;;
2476;SDS011;1249;51.270;6.756;2023-07-28T04:06:45;2.10;;;2.00;;
2476;SDS011;1249;51.270;6.756;2023-07-28T04:09:13;2.00;;;1.90;;
2476;SDS011;1249;51.270;6.756;2023-07-28T04:11:39;1.93;;;1.80;;
2476;SDS011;1249;51.270;6.756;2023-07-28T04:14:05;2.43;;;1.90;;
2476;SDS011;1249;51.270;6.756;2023-07-28T04:16:31;2.10;;;1.90;;
2476;SDS011;1249;51.270;6.756;2023-07-28T04:18:57;2.60;;;2.40;;
2476;SDS011;1249;51.270;6.756;2023-07-28T04:21:23;1.90;;;1.80;;
2476;SDS011;1249;51.270;6.756;2023-07-28T04:23:48;2.23;;;1.90;;
2476;SDS011;1249;51.270;6.756;2023-07-28T04:26:14;1.97;;;1.87;;
2476;SDS011;1249;51.270;6.756;2023-07-28T04:28:41;2.10;;;2.00;;
2476;SDS011;1249;51.270;6.756;2023-07-28T04:31:06;1.70;;;1.60;;
2476;SDS011;1249;51.270;6.756;2023-07-28T04:33:32;1.60;;;1.50;;
2476;SDS011;1249;51.270;6.756;2023-07-28T04:35:57;1.80;;;1.70;;
2476;SDS011;1249;51.270;6.756;2023-07-28T04:38:23;2.50;;;2.00;;
2476;SDS011;1249;51.270;6.756;2023-07-28T04:40:49;3.10;;;1.93;;
2476;SDS011;1249;51.270;6.756;2023-07-28T04:43:14;2.10;;;1.90;;
2476;SDS011;1249;51.270;6.756;2023-07-28T04:45:40;1.83;;;1.73;;
2476;SDS011;1249;51.270;6.756;2023-07-28T04:48:05;2.03;;;1.70;;
2476;SDS011;1249;51.270;6.756;2023-07-28T04:50:31;1.70;;;1.60;;
2476;SDS011;1249;51.270;6.756;2023-07-28T04:52:59;5.43;;;2.03;;
2476;SDS011;1249;51.270;6.756;2023-07-28T04:55:25;1.53;;;1.43;;
2476;SDS011;1249;51.270;6.756;2023-07-28T04:57:52;1.60;;;1.50;;
2476;SDS011;1249;51.270;6.756;2023-07-28T05:00:17;1.90;;;1.77;;
2476;SDS011;1249;51.270;6.756;2023-07-28T05:02:43;2.47;;;1.87;;
2476;SDS011;1249;51.270;6.756;2023-07-28T05:05:09;2.33;;;2.13;;
2476;SDS011;1249;51.270;6.756;2023-07-28T05:07:34;2.17;;;1.47;;
2476;SDS011;1249;51.270;6.756;2023-07-28T05:10:00;1.53;;;1.43;;
2476;SDS011;1249;51.270;6.756;2023-07-28T05:12:25;1.90;;;1.80;;
2476;SDS011;1249;51.270;6.756;2023-07-28T05:14:51;2.50;;;2.30;;
2476;SDS011;1249;51.270;6.756;2023-07-28T05:17:17;5.30;;;1.90;;
2476;SDS011;1249;51.270;6.756;2023-07-28T05:19:42;2.20;;;1.73;;
2476;SDS011;1249;51.270;6.756;2023-07-28T05:22:08;2.60;;;1.57;;
2476;SDS011;1249;51.270;6.756;2023-07-28T05:24:33;2.70;;;1.90;;
2476;SDS011;1249;51.270;6.756;2023-07-28T05:26:59;2.33;;;1.60;;
2476;SDS011;1249;51.270;6.756;2023-07-28T05:29:25;2.50;;;1.90;;
2476;SDS011;1249;51.270;6.756;2023-07-28T05:31:50;1.90;;;1.80;;
2476;SDS011;1249;51.270;6.756;2023-07-28T05:34:16;3.10;;;1.83;;
2476;SDS011;1249;51.270;6.756;2023-07-28T05:36:42;2.27;;;2.07;;
2476;SDS011;1249;51.270;6.756;2023-07-28T05:39:08;1.77;;;1.67;;
2476;SDS011;1249;51.270;6.756;2023-07-28T05:41:34;2.43;;;1.80;;
2476;SDS011;1249;51.270;6.756;2023-07-28T05:43:59;2.23;;;1.87;;
2476;SDS011;1249;51.270;6.756;2023-07-28T05:46:25;3.77;;;2.37;;
2476;SDS011;1249;51.270;6.756;2023-07-28T05:48:50;2.20;;;2.00;;
2476;SDS011;1249;51.270;6.756;2023-07-28T05:51:16;3.27;;;2.37;;
2476;SDS011;1249;51.270;6.756;2023-07-28T05:53:41;2.53;;;2.33;;
2476;SDS011;1249;51.270;6.756;2023-07-28T05:56:07;2.10;;;1.80;;
2476;SDS011;1249;51.270;6.756;2023-07-28T05:58:33;6.97;;;2.03;;
2476;SDS011;1249;51.270;6.756;2023-07-28T06:00:58;2.00;;;1.80;;
2476;SDS011;1249;51.270;6.756;2023-07-28T06:03:24;2.30;;;1.53;;
2476;SDS011;1249;51.270;6.756;2023-07-28T06:05:49;1.90;;;1.70;;
2476;SDS011;1249;51.270;6.756;2023-07-28T06:08:15;2.53;;;2.33;;
2476;SDS011;1249;51.270;6.756;2023-07-28T06:10:41;2.30;;;2.10;;
2476;SDS011;1249;51.270;6.756;2023-07-28T06:13:06;8.10;;;2.10;;
2476;SDS011;1249;51.270;6.756;2023-07-28T06:15:32;3.40;;;2.50;;
2476;SDS011;1249;51.270;6.756;2023-07-28T06:17:59;1.90;;;1.70;;
2476;SDS011;1249;51.270;6.756;2023-07-28T06:20:26;1.97;;;1.87;;
2476;SDS011;1249;51.270;6.756;2023-07-28T06:22:52;2.57;;;2.10;;
2476;SDS011;1249;51.270;6.756;2023-07-28T06:25:17;3.13;;;1.80;;
2476;SDS011;1249;51.270;6.756;2023-07-28T06:27:43;2.40;;;2.20;;
2476;SDS011;1249;51.270;6.756;2023-07-28T06:30:08;2.63;;;2.10;;
2476;SDS011;1249;51.270;6.756;2023-07-28T06:32:34;3.63;;;2.30;;
2476;SDS011;1249;51.270;6.756;2023-07-28T06:35:00;1.93;;;1.73;;
2476;SDS011;1249;51.270;6.756;2023-07-28T06:37:26;2.33;;;2.00;;
2476;SDS011;1249;51.270;6.756;2023-07-28T06:39:52;4.03;;;2.37;;
2476;SDS011;1249;51.270;6.756;2023-07-28T06:42:19;2.13;;;1.93;;
2476;SDS011;1249;51.270;6.756;2023-07-28T06:44:48;2.40;;;2.20;;
2476;SDS011;1249;51.270;6.756;2023-07-28T06:47:17;1.60;;;1.50;;
2476;SDS011;1249;51.270;6.756;2023-07-28T06:49:43;1.60;;;1.50;;
2476;SDS011;1249;51.270;6.756;2023-07-28T06:52:09;4.57;;;2.20;;
2476;SDS011;1249;51.270;6.756;2023-07-28T06:54:36;2.57;;;1.60;;
2476;SDS011;1249;51.270;6.756;2023-07-28T06:57:02;1.70;;;1.60;;
2476;SDS011;1249;51.270;6.756;2023-07-28T06:59:28;1.80;;;1.70;;
2476;SDS011;1249;51.270;6.756;2023-07-28T07:01:53;2.97;;;1.77;;
2476;SDS011;1249;51.270;6.756;2023-07-28T07:04:19;3.20;;;2.00;;
2476;SDS011;1249;51.270;6.756;2023-07-28T07:06:44;1.90;;;1.80;;
2476;SDS011;1249;51.270;6.756;2023-07-28T07:09:10;2.13;;;2.03;;
2476;SDS011;1249;51.270;6.756;2023-07-28T07:11:39;2.07;;;1.93;;
2476;SDS011;1249;51.270;6.756;2023-07-28T07:14:05;2.80;;;2.43;;
2476;SDS011;1249;51.270;6.756;2023-07-28T07:16:31;2.00;;;1.80;;
2476;SDS011;1249;51.270;6.756;2023-07-28T07:18:57;2.27;;;2.07;;
2476;SDS011;1249;51.270;6.756;2023-07-28T07:21:23;3.23;;;2.90;;
2476;SDS011;1249;51.270;6.756;2023-07-28T07:23:48;2.77;;;2.57;;
2476;SDS011;1249;51.270;6.756;2023-07-28T07:26:14;3.03;;;2.60;;
2476;SDS011;1249;51.270;6.756;2023-07-28T07:28:39;2.40;;;2.30;;
2476;SDS011;1249;51.270;6.756;2023-07-28T07:31:11;2.67;;;2.43;;
2476;SDS011;1249;51.270;6.756;2023-07-28T07:33:38;2.80;;;2.60;;
2476;SDS011;1249;51.270;6.756;2023-07-28T07:36:03;2.00;;;1.90;;
2476;SDS011;1249;51.270;6.756;2023-07-28T07:38:29;2.50;;;2.20;;
2476;SDS011;1249;51.270;6.756;2023-07-28T07:40:54;1.97;;;1.77;;
2476;SDS011;1249;51.270;6.756;2023-07-28T07:43:20;2.20;;;2.00;;
2476;SDS011;1249;51.270;6.756;2023-07-28T07:45:46;1.87;;;1.67;;
2476;SDS011;1249;51.270;6.756;2023-07-28T07:48:12;4.00;;;1.90;;
2476;SDS011;1249;51.270;6.756;2023-07-28T07:50:38;2.13;;;1.93;;
2476;SDS011;1249;51.270;6.756;2023-07-28T07:53:04;1.50;;;1.40;;
2476;SDS011;1249;51.270;6.756;2023-07-28T07:55:29;1.50;;;1.40;;
2476;SDS011;1249;51.270;6.756;2023-07-28T07:57:56;1.70;;;1.60;;
2476;SDS011;1249;51.270;6.756;2023-07-28T08:00:22;1.83;;;1.73;;
2476;SDS011;1249;51.270;6.756;2023-07-28T08:02:48;3.20;;;1.60;;
2476;SDS011;1249;51.270;6.756;2023-07-28T08:05:14;1.60;;;1.50;;
2476;SDS011;1249;51.270;6.756;2023-07-28T08:07:40;3.43;;;1.77;;
2476;SDS011;1249;51.270;6.756;2023-07-28T08:10:06;2.83;;;2.00;;
2476;SDS011;1249;51.270;6.756;2023-07-28T08:12:32;1.97;;;1.77;;
2476;SDS011;1249;51.270;6.756;2023-07-28T08:14:58;2.90;;;1.70;;
2476;SDS011;1249;51.270;6.756;2023-07-28T08:17:24;2.53;;;2.33;;
2476;SDS011;1249;51.270;6.756;2023-07-28T08:19:49;2.17;;;1.97;;
2476;SDS011;1249;51.270;6.756;2023-07-28T08:22:16;3.20;;;2.40;;
2476;SDS011;1249;51.270;6.756;2023-07-28T08:24:41;2.93;;;2.60;;
2476;SDS011;1249;51.270;6.756;2023-07-28T08:27:07;3.13;;;2.30;;
2476;SDS011;1249;51.270;6.756;2023-07-28T08:29:33;4.23;;;2.50;;
2476;SDS011;1249;51.270;6.756;2023-07-28T08:31:59;2.43;;;2.23;;
2476;SDS011;1249;51.270;6.756;2023-07-28T08:34:24;5.87;;;2.50;;
2476;SDS011;1249;51.270;6.756;2023-07-28T08:36:50;6.03;;;2.57;;
2476;SDS011;1249;51.270;6.756;2023-07-28T08:39:17;4.10;;;2.20;;
2476;SDS011;1249;51.270;6.756;2023-07-28T08:41:43;2.50;;;2.30;;
2476;SDS011;1249;51.270;6.756;2023-07-28T08:44:08;3.17;;;2.60;;
2476;SDS011;1249;51.270;6.756;2023-07-28T08:46:34;2.80;;;2.60;;
2476;SDS011;1249;51.270;6.756;2023-07-28T08:49:00;3.03;;;2.73;;
2476;SDS011;1249;51.270;6.756;2023-07-28T08:51:26;2.93;;;2.73;;
2476;SDS011;1249;51.270;6.756;2023-07-28T08:53:52;2.30;;;2.20;;
2476;SDS011;1249;51.270;6.756;2023-07-28T08:56:18;2.50;;;2.30;;
2476;SDS011;1249;51.270;6.756;2023-07-28T08:58:44;2.47;;;2.27;;
2476;SDS011;1249;51.270;6.756;2023-07-28T09:01:10;2.40;;;2.20;;
2476;SDS011;1249;51.270;6.756;2023-07-28T09:03:38;2.77;;;2.40;;
2476;SDS011;1249;51.270;6.756;2023-07-28T09:06:06;2.73;;;2.53;;
2476;SDS011;1249;51.270;6.756;2023-07-28T09:08:35;4.23;;;2.70;;
2476;SDS011;1249;51.270;6.756;2023-07-28T09:11:02;7.33;;;2.67;;
2476;SDS011;1249;51.270;6.756;2023-07-28T09:13:37;3.13;;;2.53;;
2476;SDS011;1249;51.270;6.756;2023-07-28T09:16:16;2.97;;;2.77;;
2476;SDS011;1249;51.270;6.756;2023-07-28T09:18:45;2.90;;;2.70;;
2476;SDS011;1249;51.270;6.756;2023-07-28T09:21:16;4.13;;;3.03;;
2476;SDS011;1249;51.270;6.756;2023-07-28T09:23:43;2.40;;;2.20;;
2476;SDS011;1249;51.270;6.756;2023-07-28T09:26:09;2.83;;;2.40;;
2476;SDS011;1249;51.270;6.756;2023-07-28T09:28:38;2.43;;;2.23;;
2476;SDS011;1249;51.270;6.756;2023-07-28T09:31:05;3.80;;;2.40;;
2476;SDS011;1249;51.270;6.756;2023-07-28T09:33:32;2.43;;;2.23;;
2476;SDS011;1249;51.270;6.756;2023-07-28T09:36:19;2.60;;;2.40;;
2476;SDS011;1249;51.270;6.756;2023-07-28T09:38:47;2.30;;;2.10;;
2476;SDS011;1249;51.270;6.756;2023-07-28T09:41:16;2.10;;;2.00;;
2476;SDS011;1249;51.270;6.756;2023-07-28T09:43:42;2.57;;;2.20;;
2476;SDS011;1249;51.270;6.756;2023-07-28T09:46:09;2.13;;;1.60;;
2476;SDS011;1249;51.270;6.756;2023-07-28T09:48:37;6.27;;;2.40;;
2476;SDS011;1249;51.270;6.756;2023-07-28T09:51:08;1.90;;;1.80;;
2476;SDS011;1249;51.270;6.756;2023-07-28T09:53:46;5.97;;;3.27;;
2476;SDS011;1249;51.270;6.756;2023-07-28T09:56:14;3.10;;;2.20;;
2476;SDS011;1249;51.270;6.756;2023-07-28T09:58:49;2.03;;;1.90;;
2476;SDS011;1249;51.270;6.756;2023-07-28T10:01:16;1.90;;;1.80;;
2476;SDS011;1249;51.270;6.756;2023-07-28T10:03:42;3.20;;;2.13;;
2476;SDS011;1249;51.270;6.756;2023-07-28T10:06:08;2.17;;;1.97;;
2476;SDS011;1249;51.270;6.756;2023-07-28T10:08:34;6.13;;;2.43;;
2476;SDS011;1249;51.270;6.756;2023-07-28T10:11:01;3.00;;;2.00;;
2476;SDS011;1249;51.270;6.756;2023-07-28T10:13:32;2.70;;;2.27;;
2476;SDS011;1249;51.270;6.756;2023-07-28T10:16:06;1.90;;;1.80;;
2476;SDS011;1249;51.270;6.756;2023-07-28T10:18:34;4.87;;;2.27;;
2476;SDS011;1249;51.270;6.756;2023-07-28T10:21:09;2.20;;;2.00;;
2476;SDS011;1249;51.270;6.756;2023-07-28T10:23:40;3.30;;;1.63;;
2476;SDS011;1249;51.270;6.756;2023-07-28T10:26:06;2.07;;;1.70;;
2476;SDS011;1249;51.270;6.756;2023-07-28T10:31:04;2.87;;;2.00;;
2476;SDS011;1249;51.270;6.756;2023-07-28T10:33:32;1.90;;;1.70;;
2476;SDS011;1249;51.270;6.756;2023-07-28T10:38:46;1.60;;;1.50;;
2476;SDS011;1249;51.270;6.756;2023-07-28T10:41:25;1.80;;;1.70;;
2476;SDS011;1249;51.270;6.756;2023-07-28T10:43:50;1.70;;;1.60;;
2476;SDS011;1249;51.270;6.756;2023-07-28T10:46:17;1.70;;;1.60;;
2476;SDS011;1249;51.270;6.756;2023-07-28T10:48:45;2.23;;;1.47;;
2476;SDS011;1249;51.270;6.756;2023-07-28T10:51:12;3.20;;;1.90;;
2476;SDS011;1249;51.270;6.756;2023-07-28T10:53:49;2.13;;;2.03;;
2476;SDS011;1249;51.270;6.756;2023-07-28T10:56:15;1.53;;;1.40;;
2476;SDS011;1249;51.270;6.756;2023-07-28T10:58:41;2.03;;;1.90;;
2476;SDS011;1249;51.270;6.756;2023-07-28T11:01:06;1.77;;;1.67;;
2476;SDS011;1249;51.270;6.756;2023-07-28T11:03:32;2.70;;;1.50;;
2476;SDS011;1249;51.270;6.756;2023-07-28T11:05:58;2.03;;;1.93;;
2476;SDS011;1249;51.270;6.756;2023-07-28T11:08:24;2.03;;;1.83;;
2476;SDS011;1249;51.270;6.756;2023-07-28T11:10:50;1.90;;;1.70;;
2476;SDS011;1249;51.270;6.756;2023-07-28T11:13:16;1.93;;;1.83;;
2476;SDS011;1249;51.270;6.756;2023-07-28T11:15:41;1.80;;;1.70;;
2476;SDS011;1249;51.270;6.756;2023-07-28T11:18:08;2.13;;;1.67;;
2476;SDS011;1249;51.270;6.756;2023-07-28T11:20:34;1.70;;;1.60;;
2476;SDS011;1249;51.270;6.756;2023-07-28T11:23:01;1.60;;;1.50;;
2476;SDS011;1249;51.270;6.756;2023-07-28T11:25:31;1.93;;;1.70;;
2476;SDS011;1249;51.270;6.756;2023-07-28T11:28:00;1.50;;;1.37;;
2476;SDS011;1249;51.270;6.756;2023-07-28T11:30:29;1.33;;;1.23;;
2476;SDS011;1249;51.270;6.756;2023-07-28T11:32:56;1.73;;;1.60;;
2476;SDS011;1249;51.270;6.756;2023-07-28T11:35:21;1.60;;;1.50;;
2476;SDS011;1249;51.270;6.756;2023-07-28T11:37:49;1.27;;;1.17;;
2476;SDS011;1249;51.270;6.756;2023-07-28T11:40:17;1.87;;;1.70;;
2476;SDS011;1249;51.270;6.756;2023-07-28T11:42:45;1.53;;;1.43;;
2476;SDS011;1249;51.270;6.756;2023-07-28T11:45:16;1.67;;;1.50;;
2476;SDS011;1249;51.270;6.756;2023-07-28T11:47:56;1.40;;;1.30;;
2476;SDS011;1249;51.270;6.756;2023-07-28T11:50:37;1.63;;;1.53;;
2476;SDS011;1249;51.270;6.756;2023-07-28T11:53:03;1.90;;;1.27;;
2476;SDS011;1249;51.270;6.756;2023-07-28T11:55:31;2.93;;;1.50;;
2476;SDS011;1249;51.270;6.756;2023-07-28T11:57:57;2.00;;;1.53;;
2476;SDS011;1249;51.270;6.756;2023-07-28T12:00:33;2.07;;;1.60;;
2476;SDS011;1249;51.270;6.756;2023-07-28T12:03:04;2.27;;;1.40;;
2476;SDS011;1249;51.270;6.756;2023-07-28T12:05:30;2.00;;;1.43;;
2476;SDS011;1249;51.270;6.756;2023-07-28T12:07:55;1.60;;;1.40;;
2476;SDS011;1249;51.270;6.756;2023-07-28T12:10:21;1.50;;;1.40;;
2476;SDS011;1249;51.270;6.756;2023-07-28T12:12:47;3.40;;;1.50;;
2476;SDS011;1249;51.270;6.756;2023-07-28T12:15:23;1.40;;;1.20;;
2476;SDS011;1249;51.270;6.756;2023-07-28T12:18:27;1.47;;;1.20;;
2476;SDS011;1249;51.270;6.756;2023-07-28T12:20:46;1.40;;;1.30;;
2476;SDS011;1249;51.270;6.756;2023-07-28T12:23:16;1.50;;;1.20;;
2476;SDS011;1249;51.270;6.756;2023-07-28T12:25:43;2.60;;;1.60;;
2476;SDS011;1249;51.270;6.756;2023-07-28T12:28:09;1.40;;;1.30;;
2476;SDS011;1249;51.270;6.756;2023-07-28T12:30:36;1.50;;;1.30;;
2476;SDS011;1249;51.270;6.756;2023-07-28T12:33:02;1.40;;;1.30;;
2476;SDS011;1249;51.270;6.756;2023-07-28T12:35:29;1.43;;;1.33;;
2476;SDS011;1249;51.270;6.756;2023-07-28T12:37:57;1.50;;;1.40;;
2476;SDS011;1249;51.270;6.756;2023-07-28T12:40:25;1.30;;;1.20;;
2476;SDS011;1249;51.270;6.756;2023-07-28T12:42:53;1.30;;;1.20;;
2476;SDS011;1249;51.270;6.756;2023-07-28T12:45:19;1.70;;;1.40;;
2476;SDS011;1249;51.270;6.756;2023-07-28T12:47:46;1.73;;;1.30;;
2476;SDS011;1249;51.270;6.756;2023-07-28T12:50:11;1.70;;;1.30;;
2476;SDS011;1249;51.270;6.756;2023-07-28T12:52:37;1.40;;;1.30;;
2476;SDS011;1249;51.270;6.756;2023-07-28T12:55:02;1.70;;;1.30;;
2476;SDS011;1249;51.270;6.756;2023-07-28T12:57:28;2.17;;;1.20;;
2476;SDS011;1249;51.270;6.756;2023-07-28T12:59:54;1.30;;;1.20;;
2476;SDS011;1249;51.270;6.756;2023-07-28T13:02:19;2.20;;;1.30;;
2476;SDS011;1249;51.270;6.756;2023-07-28T13:04:45;1.30;;;1.20;;
2476;SDS011;1249;51.270;6.756;2023-07-28T13:07:11;1.20;;;1.10;;
2476;SDS011;1249;51.270;6.756;2023-07-28T13:09:37;2.80;;;1.37;;
2476;SDS011;1249;51.270;6.756;2023-07-28T13:12:02;1.20;;;1.10;;
2476;SDS011;1249;51.270;6.756;2023-07-28T13:14:28;1.63;;;1.53;;
2476;SDS011;1249;51.270;6.756;2023-07-28T13:16:53;2.43;;;1.40;;
2476;SDS011;1249;51.270;6.756;2023-07-28T13:19:19;4.30;;;1.10;;
2476;SDS011;1249;51.270;6.756;2023-07-28T13:24:15;1.43;;;1.27;;
2476;SDS011;1249;51.270;6.756;2023-07-28T13:26:41;1.70;;;1.23;;
2476;SDS011;1249;51.270;6.756;2023-07-28T13:29:06;1.40;;;1.20;;
2476;SDS011;1249;51.270;6.756;2023-07-28T13:31:32;4.13;;;1.27;;
2476;SDS011;1249;51.270;6.756;2023-07-28T13:33:58;1.90;;;1.20;;
2476;SDS011;1249;51.270;6.756;2023-07-28T13:36:23;1.60;;;1.50;;
2476;SDS011;1249;51.270;6.756;2023-07-28T13:38:49;1.97;;;1.30;;
2476;SDS011;1249;51.270;6.756;2023-07-28T13:41:14;1.80;;;1.10;;
2476;SDS011;1249;51.270;6.756;2023-07-28T13:43:40;1.40;;;1.30;;
2476;SDS011;1249;51.270;6.756;2023-07-28T13:46:06;1.47;;;1.30;;
2476;SDS011;1249;51.270;6.756;2023-07-28T13:48:33;1.40;;;1.20;;
2476;SDS011;1249;51.270;6.756;2023-07-28T13:51:00;1.93;;;1.37;;
2476;SDS011;1249;51.270;6.756;2023-07-28T13:53:26;1.97;;;1.20;;
2476;SDS011;1249;51.270;6.756;2023-07-28T13:55:53;1.60;;;1.50;;
2476;SDS011;1249;51.270;6.756;2023-07-28T13:58:19;1.30;;;1.10;;
2476;SDS011;1249;51.270;6.756;2023-07-28T14:00:45;1.57;;;1.47;;
2476;SDS011;1249;51.270;6.756;2023-07-28T14:03:10;1.70;;;1.30;;
2476;SDS011;1249;51.270;6.756;2023-07-28T14:05:37;1.40;;;1.30;;
2476;SDS011;1249;51.270;6.756;2023-07-28T14:08:03;2.50;;;1.10;;
2476;SDS011;1249;51.270;6.756;2023-07-28T14:10:28;3.40;;;1.40;;
2476;SDS011;1249;51.270;6.756;2023-07-28T14:12:54;1.60;;;1.50;;
2476;SDS011;1249;51.270;6.756;2023-07-28T14:15:19;1.60;;;1.40;;
2476;SDS011;1249;51.270;6.756;2023-07-28T14:17:45;1.57;;;1.47;;
2476;SDS011;1249;51.270;6.756;2023-07-28T14:20:11;2.00;;;1.60;;
2476;SDS011;1249;51.270;6.756;2023-07-28T14:22:36;2.17;;;1.70;;
2476;SDS011;1249;51.270;6.756;2023-07-28T14:25:02;1.50;;;1.40;;
2476;SDS011;1249;51.270;6.756;2023-07-28T14:27:28;1.80;;;1.53;;
2476;SDS011;1249;51.270;6.756;2023-07-28T14:29:54;1.40;;;1.30;;
2476;SDS011;1249;51.270;6.756;2023-07-28T14:32:19;1.40;;;1.30;;
2476;SDS011;1249;51.270;6.756;2023-07-28T14:34:45;1.27;;;1.17;;
2476;SDS011;1249;51.270;6.756;2023-07-28T14:37:10;1.57;;;1.47;;
2476;SDS011;1249;51.270;6.756;2023-07-28T14:39:36;1.57;;;1.47;;
2476;SDS011;1249;51.270;6.756;2023-07-28T14:42:02;1.40;;;1.30;;
2476;SDS011;1249;51.270;6.756;2023-07-28T14:44:28;1.30;;;1.20;;
2476;SDS011;1249;51.270;6.756;2023-07-28T14:46:54;1.67;;;1.57;;
2476;SDS011;1249;51.270;6.756;2023-07-28T14:49:19;1.27;;;1.17;;
2476;SDS011;1249;51.270;6.756;2023-07-28T14:51:45;1.50;;;1.20;;
2476;SDS011;1249;51.270;6.756;2023-07-28T14:54:11;2.07;;;1.50;;
2476;SDS011;1249;51.270;6.756;2023-07-28T14:56:37;1.70;;;1.60;;
2476;SDS011;1249;51.270;6.756;2023-07-28T14:59:02;1.60;;;1.40;;
2476;SDS011;1249;51.270;6.756;2023-07-28T15:01:28;1.63;;;1.40;;
2476;SDS011;1249;51.270;6.756;2023-07-28T15:03:54;1.50;;;1.40;;
2476;SDS011;1249;51.270;6.756;2023-07-28T15:06:20;2.27;;;1.50;;
2476;SDS011;1249;51.270;6.756;2023-07-28T15:08:46;1.77;;;1.27;;
2476;SDS011;1249;51.270;6.756;2023-07-28T15:11:12;1.60;;;1.50;;
2476;SDS011;1249;51.270;6.756;2023-07-28T15:13:38;1.37;;;1.27;;
2476;SDS011;1249;51.270;6.756;2023-07-28T15:16:04;1.60;;;1.50;;
2476;SDS011;1249;51.270;6.756;2023-07-28T15:18:30;1.57;;;1.30;;
2476;SDS011;1249;51.270;6.756;2023-07-28T15:20:56;1.40;;;1.30;;